Terminal Aerodrome Forecast
Issued by NWS

Home | Current Version | Previous Version | Text Only | Print | Product List | Glossary On
Versions: 1 2 3 4 5 6 7 8 9 10 11 12 13 14 15 16 17 18
747
FTUS43 KTOP 241139
TAFFOE
TAF
KFOE 241139Z 2412/2512 17015G26KT P6SM BKN150
     FM241900 15011KT P6SM VCTS BKN040CB
     FM250200 01008KT P6SM -SHRA BKN040
     FM250700 34009KT P6SM -SHRA OVC018
     FM250900 33011KT P6SM OVC013=

USA.gov is the U.S. government's official web portal to all federal, state and local government web resources and services.